AirNav   Air Wisconsin Up To $57,000 Bonus
 
 525 users online  

97CA Zamora Airport
Woodland, California, USA

GOING TO WOODLAND?


FAA INFORMATION EFFECTIVE 07 OCTOBER 2021

Location

FAA Identifier: 97CA
Lat/Long: 38-47-57.3000N 121-49-50.5000W
38-47.955000N 121-49.841667W
38.7992500,-121.8306944
(estimated)
Elevation: 36 ft. / 11 m (estimated)
From city: 8 miles NNW of WOODLAND, CA
Time zone: UTC -7 (UTC -8 during Standard Time)
Zip code: 95645

Airport Operations

Airport use: Private use. Permission required prior to landing
Activation date: 05/2018
Control tower: no
ARTCC: OAKLAND CENTER
FSS: RANCHO MURIETA FLIGHT SERVICE STATION
Attendance: UNATNDD
Segmented circle: no

Airport Communications

WX ASOS at SMF (13 nm SE): PHONE 916-649-3996
WX AWOS-3P at DWA (13 nm S): 125.775 (530-750-2759)
WX AWOS-3 at EDU (16 nm S): 119.025 (530-754-6839)

Nearby radio navigation aids

VOR radial/distance  VOR name  Freq  Var
ILAr133/18.7WILLIAMS VORTAC114.4018E
MCCr275/21.5MC CLELLAN VOR/DME109.2017E
MYVr198/21.6MARYSVILLE VOR/DME110.8016E
SACr311/25.0SACRAMENTO VORTAC115.2017E

Airport Services

Runway Information

Runway 16/34

Dimensions: 2700 x 40 ft. / 823 x 12 m
Surface: concrete, in excellent condition
Runway edge markings: NSTD DUE TO SMALL NUMBERS.
RUNWAY 16  RUNWAY 34
Latitude: 38-48.176667N38-47.732167N
Longitude: 121-49.837167W121-49.844833W
Elevation: 35.0 ft.36.0 ft.
Traffic pattern: leftleft
Markings: basic, in fair condition
Obstructions: none60 ft. pline, 600 ft. from runway

Airport Ownership and Management from official FAA records

Ownership: Privately-owned
Owner: KLEIN FARMS LP
913 RIDGEVIEW DR.
WOODLAND, CA 95695
Phone (530) 681-6893
Manager: MARK OCHOA
P.O. BOX 29
YOLO, CA 95697
Phone 530-681-6893
EMAIL ADDRESS: KLEINFARMS@YAHOO.COM

Airport Operational Statistics

Aircraft based on the field: 5
Single engine airplanes: 4
Helicopters: 1
    

Additional Remarks

OWNER DESIRES AIRPORT TO BE CHARTED.
FOR CD CTC OAKLAND ARTCC AT 510-745-3380.

Instrument Procedures

There are no published instrument procedures at 97CA.

Some nearby airports with instrument procedures:

O41 - Watts-Woodland Airport (8 nm S)
KSMF - Sacramento International Airport (13 nm SE)
KDWA - Yolo County Airport (13 nm S)
KEDU - University Airport (16 nm S)
KMCC - Mc Clellan Airfield (22 nm E)
 
Loc | Ops | Rwys | IFR | FBO | Links
Com | Nav | Svcs | Stats | Notes

Sonoma Jet Center
 
Aerial photo
No photo
 
Airport distance calculator
Flying to Zamora Airport? Find the distance to fly.

From to 97CA

Sunrise and sunset
Times for 27-Oct-2021
 Local
(UTC-7)
 Zulu
(UTC)
Morning civil twilight07:0314:03
Sunrise07:3014:30
Sunset18:1201:12
Evening civil twilight18:4001:40

Current date and time
Zulu (UTC)  28-Oct-2021 05:36:15
Local (UTC-7)  27-Oct-2021 22:36:15
 
METAR
KSMF 
12nm SE 
280453Z 32011KT 10SM CLR 16/13 A3021 RMK AO2 SLP228 T01610128
KDWA 
13nm S 
280510Z AUTO 35006KT 10SM CLR 17/13 A3023 RMK AO2
KEDU 
16nm S 
280515Z AUTO 34008KT 10SM CLR 17/13 A3022 RMK AO1
KMCC 
22nm E 
280515Z AUTO 33005KT 10SM CLR 16/13 A3021 RMK AO2
KMYV 
22nm NE 
280453Z AUTO 33008KT 10SM CLR 16/12 A3022 RMK AO2 SLP237 T01610117
KLHM 
23nm E 
280515Z AUTO 34004KT 10SM CLR 14/12 A3021 RMK AO1
KSAC 
24nm SE 
280453Z AUTO 34006KT 10SM CLR 17/13 A3021 RMK AO2 SLP230 T01670133
TAF
KSMF 
12nm SE 
280158Z 2802/2824 35006KT P6SM SKC FM280300 VRB04KT P6SM SKC FM281300 14003KT 2SM BR FEW250 FM281700 14003KT 6SM BR FEW250
NOTAMs
Click for the latest NOTAMs
NOTAMs are issued by the DoD/FAA and will open in a separate window not controlled by AirNav.

 

 
 

Would you like to see your business listed on this page?

 If your business provides an interesting product or service to pilots, flight crews, aircraft, or users of the Zamora Airport, you should consider listing it here.  To start the listing process, click on the button below
 
Add a business
 

Other Pages about Zamora Airport

Update a link
 
Copyright © AirNav, LLC. All rights reserved. Privacy Policy  Contact